createdAt,value
2022-08-19T00:00:28.594Z,21.80
2022-08-19T00:01:53.772Z,21.80
2022-08-19T00:03:15.986Z,21.70
2022-08-19T00:04:38.605Z,21.70
2022-08-19T00:06:00.713Z,21.70
2022-08-19T00:07:22.792Z,21.70
2022-08-19T00:08:45.718Z,21.70
2022-08-19T00:10:09.075Z,21.60
2022-08-19T00:11:32.581Z,21.70
2022-08-19T00:12:54.653Z,21.60
2022-08-19T00:14:18.608Z,21.50
2022-08-19T00:15:40.688Z,21.50
2022-08-19T00:17:04.811Z,21.40
2022-08-19T00:18:27.373Z,21.40
2022-08-19T00:19:49.539Z,21.40
2022-08-19T00:21:11.630Z,21.30
2022-08-19T00:22:34.229Z,21.30
2022-08-19T00:24:00.538Z,21.30
2022-08-19T00:25:30.137Z,21.30
2022-08-19T00:26:53.258Z,21.30
2022-08-19T00:28:15.409Z,21.30
2022-08-19T00:29:37.483Z,21.30
2022-08-19T00:31:00.620Z,21.30
2022-08-19T00:32:22.978Z,21.30
2022-08-19T00:33:45.975Z,21.40
2022-08-19T00:35:08.803Z,21.30
2022-08-19T00:36:32.765Z,21.30
2022-08-19T00:37:55.125Z,21.30
2022-08-19T00:39:18.154Z,21.30
2022-08-19T00:40:40.704Z,21.30
2022-08-19T00:42:02.959Z,21.30
2022-08-19T00:43:27.136Z,21.30
2022-08-19T00:44:50.178Z,21.30
2022-08-19T00:46:12.305Z,21.30
2022-08-19T00:47:34.383Z,21.30
2022-08-19T00:48:58.513Z,21.30
2022-08-19T00:50:22.554Z,21.30
2022-08-19T00:51:47.917Z,21.30
2022-08-19T00:53:13.021Z,21.30
2022-08-19T00:54:37.619Z,21.30
2022-08-19T00:56:01.981Z,21.30
2022-08-19T00:57:36.740Z,21.30
2022-08-19T00:59:00.369Z,21.20
2022-08-19T01:00:25.449Z,21.20
2022-08-19T01:01:48.446Z,21.20
2022-08-19T01:03:15.228Z,21.20
2022-08-19T01:04:37.362Z,21.20
2022-08-19T01:06:00.995Z,21.20
2022-08-19T01:07:23.541Z,21.10
2022-08-19T01:08:46.045Z,21.20
2022-08-19T01:10:15.337Z,21.10
2022-08-19T01:11:41.209Z,21.10
2022-08-19T01:13:04.861Z,21.00
2022-08-19T01:14:27.253Z,21.00
2022-08-19T01:15:57.444Z,20.90
2022-08-19T01:17:20.564Z,20.90
2022-08-19T01:18:44.117Z,20.90
2022-08-19T01:20:10.280Z,20.90
2022-08-19T01:21:34.226Z,20.90
2022-08-19T01:22:59.042Z,20.90
2022-08-19T01:24:21.097Z,20.90
2022-08-19T01:25:48.400Z,20.90
2022-08-19T01:27:10.874Z,20.90
2022-08-19T01:28:34.171Z,20.80
2022-08-19T01:30:01.876Z,20.80
2022-08-19T01:31:27.760Z,20.80
2022-08-19T01:32:51.887Z,20.80
2022-08-19T01:34:14.083Z,20.80
2022-08-19T01:35:37.341Z,20.80
2022-08-19T01:36:59.376Z,20.90
2022-08-19T01:38:29.208Z,20.90
2022-08-19T01:39:51.331Z,20.90
2022-08-19T01:41:13.700Z,20.90
2022-08-19T01:42:36.160Z,20.90
2022-08-19T01:44:12.372Z,20.90
2022-08-19T01:45:41.230Z,20.90
2022-08-19T01:47:04.681Z,20.90
2022-08-19T01:48:26.775Z,20.90
2022-08-19T01:49:48.821Z,20.90
2022-08-19T01:51:11.965Z,20.90
2022-08-19T01:52:36.954Z,20.80
2022-08-19T01:53:59.514Z,20.80
2022-08-19T01:55:25.061Z,20.80
2022-08-19T01:56:47.337Z,20.80
2022-08-19T01:58:21.844Z,20.80
2022-08-19T01:59:45.595Z,20.80
2022-08-19T02:01:08.543Z,20.80
2022-08-19T02:02:30.914Z,20.70
2022-08-19T02:03:54.283Z,20.70
2022-08-19T02:05:19.569Z,20.70
2022-08-19T02:06:41.824Z,20.70
2022-08-19T02:08:04.475Z,20.70
2022-08-19T02:09:26.727Z,20.60
2022-08-19T02:10:49.153Z,20.60
2022-08-19T02:12:11.244Z,20.60
2022-08-19T02:13:34.639Z,20.60
2022-08-19T02:14:56.859Z,20.60
2022-08-19T02:16:20.173Z,20.60
2022-08-19T02:17:42.353Z,20.60
2022-08-19T02:19:05.089Z,20.60
2022-08-19T02:20:27.121Z,20.60
2022-08-19T02:21:49.339Z,20.60
2022-08-19T02:23:13.440Z,20.60
2022-08-19T02:24:36.042Z,20.70
2022-08-19T02:25:58.166Z,20.70
2022-08-19T02:27:20.372Z,20.70
2022-08-19T02:28:43.789Z,20.70
2022-08-19T02:30:14.503Z,20.70
2022-08-19T02:31:37.022Z,20.70
2022-08-19T02:32:59.518Z,20.70
2022-08-19T02:34:21.675Z,20.70
2022-08-19T02:35:45.964Z,20.70
2022-08-19T02:37:28.617Z,20.70
2022-08-19T02:38:54.215Z,20.70
2022-08-19T02:40:18.775Z,20.70
2022-08-19T02:41:40.907Z,20.70
2022-08-19T02:43:08.874Z,20.80
2022-08-19T02:44:31.961Z,20.80
2022-08-19T02:45:54.750Z,20.80
2022-08-19T02:47:16.811Z,20.80
2022-08-19T02:48:38.928Z,20.80
2022-08-19T02:50:02.646Z,20.80
2022-08-19T02:51:33.812Z,20.80
2022-08-19T02:52:55.886Z,20.90
2022-08-19T02:54:17.993Z,20.90
2022-08-19T02:55:49.414Z,20.90
2022-08-19T02:57:11.746Z,20.90
2022-08-19T02:58:33.813Z,20.90
2022-08-19T02:59:55.942Z,20.90
2022-08-19T03:01:36.641Z,20.80
2022-08-19T03:02:58.768Z,20.90
2022-08-19T03:04:20.871Z,20.90
2022-08-19T03:05:55.975Z,20.80
2022-08-19T03:07:19.665Z,20.90
2022-08-19T03:08:43.820Z,20.90
2022-08-19T03:10:06.772Z,20.90
2022-08-19T03:11:31.954Z,20.90
2022-08-19T03:12:54.196Z,20.90
2022-08-19T03:14:16.545Z,20.90
2022-08-19T03:15:44.165Z,20.90
2022-08-19T03:17:06.546Z,20.90
2022-08-19T03:18:28.686Z,20.90
2022-08-19T03:19:50.724Z,20.90
2022-08-19T03:21:24.904Z,20.90
2022-08-19T03:22:47.058Z,20.80
2022-08-19T03:24:09.922Z,20.80
2022-08-19T03:25:32.060Z,20.80
2022-08-19T03:26:59.622Z,20.80
2022-08-19T03:28:22.234Z,20.80
2022-08-19T03:29:44.860Z,20.90
2022-08-19T03:31:45.481Z,20.90
2022-08-19T03:32:53.679Z,20.90
2022-08-19T03:34:27.428Z,20.90
2022-08-19T03:36:01.750Z,21.00
2022-08-19T03:37:23.908Z,21.00
2022-08-19T03:38:50.744Z,21.00
2022-08-19T03:40:21.656Z,21.00
2022-08-19T03:41:46.641Z,21.10
2022-08-19T03:43:10.682Z,21.10
2022-08-19T03:44:33.443Z,21.10
2022-08-19T03:46:08.514Z,21.10
2022-08-19T03:47:31.436Z,21.20
2022-08-19T03:48:55.919Z,21.20
2022-08-19T03:50:20.330Z,21.20
2022-08-19T03:51:44.092Z,21.20
2022-08-19T03:53:07.325Z,21.20
2022-08-19T03:54:30.320Z,21.20
2022-08-19T03:55:52.420Z,21.20
2022-08-19T03:57:14.460Z,21.20
2022-08-19T03:58:38.585Z,21.20
2022-08-19T04:00:03.773Z,21.20
2022-08-19T04:01:36.334Z,21.20
2022-08-19T04:03:00.602Z,21.30
2022-08-19T04:04:23.729Z,21.20
2022-08-19T04:05:47.699Z,21.20
2022-08-19T04:07:11.083Z,21.20
2022-08-19T04:08:33.105Z,21.20
2022-08-19T04:09:55.226Z,21.20
2022-08-19T04:11:22.312Z,21.20
2022-08-19T04:13:06.282Z,21.20
2022-08-19T04:14:31.283Z,21.20
2022-08-19T04:15:54.434Z,21.20
2022-08-19T04:17:16.587Z,21.20
2022-08-19T04:18:40.181Z,21.30
2022-08-19T04:20:02.396Z,21.30
2022-08-19T04:21:29.772Z,21.30
2022-08-19T04:22:51.986Z,21.30
2022-08-19T04:24:15.135Z,21.30
2022-08-19T04:25:39.706Z,21.30
2022-08-19T04:27:03.694Z,21.30
2022-08-19T04:28:26.761Z,21.30
2022-08-19T04:29:49.075Z,21.30
2022-08-19T04:31:16.409Z,21.40
2022-08-19T04:32:38.468Z,21.40
2022-08-19T04:34:02.468Z,21.40
2022-08-19T04:35:25.073Z,21.40
2022-08-19T04:36:47.241Z,21.40
2022-08-19T04:38:10.563Z,21.40
2022-08-19T04:39:51.268Z,21.40
2022-08-19T04:41:32.111Z,21.40
2022-08-19T04:42:55.064Z,21.40
2022-08-19T04:44:19.105Z,21.40
2022-08-19T04:45:43.843Z,21.40
2022-08-19T04:47:11.450Z,21.40
2022-08-19T04:48:35.252Z,21.40
2022-08-19T04:49:58.334Z,21.40
2022-08-19T04:51:21.676Z,21.40
2022-08-19T04:52:43.846Z,21.40
2022-08-19T04:54:05.951Z,21.40
2022-08-19T04:55:28.017Z,21.40
2022-08-19T04:56:50.974Z,21.40
2022-08-19T04:58:13.131Z,21.40
2022-08-19T04:59:35.877Z,21.40
2022-08-19T05:00:58.095Z,21.40
2022-08-19T05:02:20.311Z,21.40
2022-08-19T05:03:42.449Z,21.40
2022-08-19T05:05:05.004Z,21.40
2022-08-19T05:06:27.419Z,21.40
2022-08-19T05:07:49.489Z,21.40
2022-08-19T05:09:11.557Z,21.40
2022-08-19T05:10:36.897Z,21.40
2022-08-19T05:11:58.933Z,21.40
2022-08-19T05:13:21.077Z,21.40
2022-08-19T05:14:43.510Z,21.40
2022-08-19T05:16:05.666Z,21.40
2022-08-19T05:17:32.086Z,21.40
2022-08-19T05:19:14.927Z,21.40
2022-08-19T05:20:58.433Z,21.40
2022-08-19T05:22:33.431Z,21.40
2022-08-19T05:23:55.572Z,21.40
2022-08-19T05:25:20.421Z,21.40
2022-08-19T05:26:47.285Z,21.40
2022-08-19T05:28:09.322Z,21.40
2022-08-19T05:29:36.289Z,21.40
2022-08-19T05:30:58.749Z,21.40
2022-08-19T05:32:22.641Z,21.40
2022-08-19T05:33:44.747Z,21.40
2022-08-19T05:35:07.389Z,21.40
2022-08-19T05:36:36.069Z,21.40
2022-08-19T05:37:58.960Z,21.30
2022-08-19T05:39:22.046Z,21.30
2022-08-19T05:40:47.902Z,21.30
2022-08-19T05:42:12.289Z,21.30
2022-08-19T05:43:34.539Z,21.30
2022-08-19T05:44:57.675Z,21.30
2022-08-19T05:46:27.989Z,21.30
2022-08-19T05:47:50.538Z,21.20
2022-08-19T05:49:12.684Z,21.20
2022-08-19T05:50:37.152Z,21.20
2022-08-19T05:52:00.450Z,21.20
2022-08-19T05:53:22.521Z,21.20
2022-08-19T05:54:45.182Z,21.10
2022-08-19T05:56:17.069Z,21.10
2022-08-19T05:57:39.560Z,21.10
2022-08-19T05:59:01.985Z,21.10
2022-08-19T06:00:24.868Z,21.10
2022-08-19T06:01:47.406Z,21.00
2022-08-19T06:03:11.937Z,21.10
2022-08-19T06:04:35.687Z,21.10
2022-08-19T06:06:00.177Z,21.10
2022-08-19T06:07:22.426Z,21.10
2022-08-19T06:08:51.645Z,21.20
2022-08-19T06:10:13.810Z,21.20
2022-08-19T06:11:45.282Z,21.20
2022-08-19T06:13:07.367Z,21.20
2022-08-19T06:14:35.504Z,21.20
2022-08-19T06:16:02.612Z,21.20
2022-08-19T06:17:26.966Z,21.10
2022-08-19T06:18:58.049Z,21.10
2022-08-19T06:20:39.831Z,21.10
2022-08-19T06:22:04.258Z,21.20
2022-08-19T06:23:26.693Z,21.20
2022-08-19T06:24:48.989Z,21.20
2022-08-19T06:26:13.954Z,21.20
2022-08-19T06:27:37.853Z,21.20
2022-08-19T06:29:01.964Z,21.20
2022-08-19T06:30:24.470Z,21.30
2022-08-19T06:31:53.361Z,21.30
2022-08-19T06:33:15.504Z,21.30
2022-08-19T06:34:37.718Z,21.30
2022-08-19T06:35:59.819Z,21.30
2022-08-19T06:37:22.620Z,21.30
2022-08-19T06:38:44.849Z,21.30
2022-08-19T06:40:09.579Z,21.30
2022-08-19T06:41:37.097Z,21.30
2022-08-19T06:43:03.102Z,21.30
2022-08-19T06:44:35.378Z,21.40
2022-08-19T06:46:11.621Z,21.40
2022-08-19T06:47:37.271Z,21.50
2022-08-19T06:48:59.614Z,21.50
2022-08-19T06:50:21.938Z,21.50
2022-08-19T06:51:51.911Z,21.60
2022-08-19T06:53:14.087Z,21.60
2022-08-19T06:54:37.733Z,21.50
2022-08-19T06:56:21.965Z,21.50
2022-08-19T06:57:47.146Z,21.40
2022-08-19T06:59:12.042Z,21.40
2022-08-19T07:00:34.748Z,21.30
2022-08-19T07:01:58.061Z,21.30
2022-08-19T07:03:20.397Z,21.30
2022-08-19T07:04:42.576Z,21.30
2022-08-19T07:06:26.550Z,21.30
2022-08-19T07:07:53.390Z,21.30
2022-08-19T07:09:19.687Z,21.40
2022-08-19T07:10:47.530Z,21.40
2022-08-19T07:12:12.133Z,21.50
2022-08-19T07:13:39.499Z,21.50
2022-08-19T07:15:01.718Z,21.50
2022-08-19T07:16:29.034Z,21.50
2022-08-19T07:17:52.764Z,21.50
2022-08-19T07:19:18.705Z,21.60
2022-08-19T07:20:41.820Z,21.60
2022-08-19T07:22:06.576Z,21.60
2022-08-19T07:23:28.718Z,21.60
2022-08-19T07:24:52.026Z,21.60
2022-08-19T07:26:20.211Z,21.60
2022-08-19T07:27:54.610Z,21.60
2022-08-19T07:29:17.489Z,21.60
2022-08-19T07:30:41.675Z,21.60
2022-08-19T07:32:06.671Z,21.60
2022-08-19T07:33:36.843Z,21.60
2022-08-19T07:35:01.543Z,21.60
2022-08-19T07:36:32.080Z,21.60
2022-08-19T07:37:54.398Z,21.60
2022-08-19T07:39:23.976Z,21.70
2022-08-19T07:40:47.263Z,21.70
2022-08-19T07:42:11.473Z,21.70
2022-08-19T07:43:35.668Z,21.70
2022-08-19T07:44:59.357Z,21.70
2022-08-19T07:46:21.707Z,21.60
2022-08-19T07:47:49.585Z,21.70
2022-08-19T07:49:18.414Z,21.60
2022-08-19T07:50:40.507Z,21.60
2022-08-19T07:52:07.925Z,21.60
2022-08-19T07:53:31.313Z,21.50
2022-08-19T07:54:53.706Z,21.50
2022-08-19T07:56:16.112Z,21.50
2022-08-19T07:57:39.861Z,21.40
2022-08-19T07:59:01.990Z,21.30
2022-08-19T08:00:24.377Z,21.30
2022-08-19T08:01:47.375Z,21.30
2022-08-19T08:03:10.141Z,21.20
2022-08-19T08:04:50.769Z,21.20
2022-08-19T08:06:34.932Z,21.20
2022-08-19T08:08:16.101Z,21.10
2022-08-19T08:09:41.616Z,21.10
2022-08-19T08:11:07.812Z,21.10
2022-08-19T08:12:42.310Z,21.10
2022-08-19T08:14:05.792Z,21.10
2022-08-19T08:15:27.835Z,21.10
2022-08-19T08:16:52.219Z,21.10
2022-08-19T08:18:14.566Z,21.10
2022-08-19T08:19:38.283Z,21.10
2022-08-19T08:21:00.561Z,21.20
2022-08-19T08:22:42.432Z,21.20
2022-08-19T08:24:05.041Z,21.20
2022-08-19T08:25:27.490Z,21.10
2022-08-19T08:26:57.677Z,21.10
2022-08-19T08:28:20.392Z,21.10
2022-08-19T08:29:42.543Z,21.10
2022-08-19T08:31:09.759Z,21.10
2022-08-19T08:32:32.026Z,21.10
2022-08-19T08:33:54.174Z,21.10
2022-08-19T08:35:23.235Z,21.10
2022-08-19T08:36:46.837Z,21.20
2022-08-19T08:38:08.932Z,21.20
2022-08-19T08:39:31.223Z,21.30
2022-08-19T08:41:07.581Z,21.30
2022-08-19T08:42:37.214Z,21.30
2022-08-19T08:43:59.946Z,21.40
2022-08-19T08:45:23.359Z,21.50
2022-08-19T08:46:53.843Z,21.50
2022-08-19T08:48:32.227Z,21.60
2022-08-19T08:50:01.381Z,21.70
2022-08-19T08:53:06.209Z,22.00
2022-08-19T08:54:55.446Z,22.20
2022-08-19T08:56:18.433Z,22.40
2022-08-19T08:57:54.497Z,22.60
2022-08-19T08:59:33.349Z,22.80
2022-08-19T09:00:55.474Z,22.90
2022-08-19T09:02:18.096Z,22.90
2022-08-19T09:03:42.813Z,23.00
2022-08-19T09:05:05.579Z,23.10
2022-08-19T09:06:36.644Z,23.30
2022-08-19T09:08:12.103Z,23.50
2022-08-19T09:09:42.884Z,23.60
2022-08-19T09:11:09.861Z,23.60
2022-08-19T09:12:54.899Z,23.60
2022-08-19T09:14:47.442Z,23.70
2022-08-19T09:16:07.590Z,23.80
2022-08-19T09:17:32.260Z,23.90
2022-08-19T09:19:08.054Z,23.90
2022-08-19T09:20:32.064Z,23.80
2022-08-19T09:21:55.339Z,23.90
2022-08-19T09:23:19.050Z,23.90
2022-08-19T09:24:55.784Z,24.00
2022-08-19T09:26:21.189Z,24.10
2022-08-19T09:27:45.155Z,24.30
2022-08-19T09:29:07.768Z,24.40
2022-08-19T09:30:33.535Z,24.40
2022-08-19T09:31:55.785Z,24.50
2022-08-19T09:33:18.479Z,24.60
2022-08-19T09:34:44.022Z,24.70
2022-08-19T09:36:09.729Z,24.70
2022-08-19T09:37:31.760Z,24.70
2022-08-19T09:38:56.944Z,24.60
2022-08-19T09:40:21.205Z,24.70
2022-08-19T09:41:47.674Z,24.80
2022-08-19T09:43:13.488Z,24.80
2022-08-19T09:44:35.902Z,24.80
2022-08-19T09:46:01.196Z,24.80
2022-08-19T09:47:23.272Z,24.80
2022-08-19T09:48:49.238Z,24.90
2022-08-19T09:50:16.615Z,24.80
2022-08-19T09:51:38.923Z,24.80
2022-08-19T09:53:01.751Z,24.80
2022-08-19T09:54:25.325Z,24.90
2022-08-19T09:55:47.559Z,25.00
2022-08-19T09:57:09.689Z,24.90
2022-08-19T09:58:35.625Z,24.80
2022-08-19T09:59:57.709Z,24.80
2022-08-19T10:01:23.950Z,24.80
2022-08-19T10:02:46.057Z,24.70
2022-08-19T10:04:19.800Z,24.60
2022-08-19T10:05:49.308Z,24.50
2022-08-19T10:07:11.712Z,24.40
2022-08-19T10:08:37.591Z,24.40
2022-08-19T10:09:59.749Z,24.20
2022-08-19T10:11:28.373Z,24.20
2022-08-19T10:12:58.518Z,24.20
2022-08-19T10:14:23.507Z,23.90
2022-08-19T10:15:47.917Z,24.00
2022-08-19T10:17:17.717Z,24.00
2022-08-19T10:18:44.580Z,24.00
2022-08-19T10:20:14.165Z,24.10
2022-08-19T10:21:36.879Z,24.10
2022-08-19T10:23:00.407Z,24.20
2022-08-19T10:24:25.402Z,24.30
2022-08-19T10:25:48.675Z,24.30
2022-08-19T10:27:10.785Z,24.30
2022-08-19T10:28:40.094Z,24.30
2022-08-19T10:30:09.915Z,24.40
2022-08-19T10:31:59.856Z,24.50
2022-08-19T10:33:38.188Z,24.50
2022-08-19T10:34:58.904Z,24.40
2022-08-19T10:36:23.561Z,24.40
2022-08-19T10:37:56.794Z,24.50
2022-08-19T10:39:23.471Z,24.40
2022-08-19T10:40:45.656Z,24.40
2022-08-19T10:42:08.550Z,24.50
2022-08-19T10:43:30.667Z,24.50
2022-08-19T10:44:52.801Z,24.60
2022-08-19T10:46:16.956Z,24.60
2022-08-19T10:47:39.264Z,24.60
2022-08-19T10:49:02.944Z,24.50
2022-08-19T10:50:43.504Z,24.60
2022-08-19T10:52:32.306Z,24.60
2022-08-19T10:53:56.541Z,24.40
2022-08-19T10:55:41.389Z,24.40
2022-08-19T10:57:03.568Z,24.40
2022-08-19T10:58:26.981Z,24.40
2022-08-19T10:59:49.224Z,24.40
2022-08-19T11:01:11.587Z,24.50
2022-08-19T11:02:33.827Z,24.50
2022-08-19T11:03:57.545Z,24.70
2022-08-19T11:05:20.569Z,24.70
2022-08-19T11:06:48.586Z,24.90
2022-08-19T11:08:18.155Z,25.00
2022-08-19T11:09:47.476Z,25.10
2022-08-19T11:11:10.041Z,25.00
2022-08-19T11:12:32.130Z,25.00
2022-08-19T11:13:54.722Z,25.00
2022-08-19T11:15:17.274Z,25.10
2022-08-19T11:16:40.084Z,25.10
2022-08-19T11:18:02.168Z,25.00
2022-08-19T11:19:24.835Z,25.10
2022-08-19T11:20:46.970Z,25.10
2022-08-19T11:22:10.446Z,25.00
2022-08-19T11:23:36.826Z,25.00
2022-08-19T11:24:59.059Z,24.90
2022-08-19T11:26:22.883Z,24.80
2022-08-19T11:27:45.611Z,24.70
2022-08-19T11:29:12.434Z,24.70
2022-08-19T11:30:35.266Z,24.70
2022-08-19T11:31:57.486Z,24.80
2022-08-19T11:33:20.108Z,24.90
2022-08-19T11:34:42.414Z,24.80
2022-08-19T11:36:05.077Z,24.70
2022-08-19T11:37:27.974Z,24.60
2022-08-19T11:38:51.053Z,24.50
2022-08-19T11:40:13.421Z,24.60
2022-08-19T11:41:35.885Z,24.40
2022-08-19T11:42:58.001Z,24.40
2022-08-19T11:44:20.477Z,24.40
2022-08-19T11:45:42.711Z,24.40
2022-08-19T11:47:08.889Z,24.40
2022-08-19T11:48:31.702Z,24.30
2022-08-19T11:49:54.377Z,24.40
2022-08-19T11:51:20.518Z,24.40
2022-08-19T11:52:43.610Z,24.40
2022-08-19T11:54:07.137Z,24.40
2022-08-19T11:55:29.311Z,24.40
2022-08-19T11:56:51.475Z,24.50
2022-08-19T11:58:18.776Z,24.70
2022-08-19T11:59:41.402Z,24.80
2022-08-19T12:01:12.092Z,24.90
2022-08-19T12:02:34.418Z,25.00
2022-08-19T12:03:57.853Z,24.90
2022-08-19T12:05:20.083Z,24.90
2022-08-19T12:06:42.549Z,24.90
2022-08-19T12:08:05.519Z,24.90
2022-08-19T12:09:27.587Z,24.80
2022-08-19T12:10:53.152Z,24.90
2022-08-19T12:12:15.678Z,24.90
2022-08-19T12:13:39.791Z,24.90
2022-08-19T12:15:02.133Z,25.00
2022-08-19T12:16:27.840Z,24.90
2022-08-19T12:17:50.812Z,24.90
2022-08-19T12:19:13.512Z,24.80
2022-08-19T12:20:38.855Z,24.80
2022-08-19T12:22:03.873Z,24.70
2022-08-19T12:23:26.156Z,24.70
2022-08-19T12:24:51.152Z,24.40
2022-08-19T12:26:13.472Z,24.20
2022-08-19T12:27:40.825Z,24.10
2022-08-19T12:29:04.857Z,24.00
2022-08-19T12:30:27.029Z,23.90
2022-08-19T12:31:49.184Z,23.90
2022-08-19T12:33:11.270Z,23.90
2022-08-19T12:34:33.786Z,23.70
2022-08-19T12:36:00.714Z,23.70
2022-08-19T12:37:22.811Z,23.70
2022-08-19T12:38:45.191Z,23.60
2022-08-19T12:40:07.983Z,23.60
2022-08-19T12:41:30.145Z,23.60
2022-08-19T12:42:52.285Z,23.60
2022-08-19T12:44:14.522Z,23.70
2022-08-19T12:45:37.094Z,23.80
2022-08-19T12:47:00.021Z,23.90
2022-08-19T12:48:34.606Z,24.00
2022-08-19T12:49:57.461Z,24.00
2022-08-19T12:51:22.676Z,23.90
2022-08-19T12:52:44.734Z,23.80
2022-08-19T12:54:07.464Z,23.80
2022-08-19T12:55:30.107Z,23.80
2022-08-19T12:56:52.155Z,23.80
2022-08-19T12:58:14.353Z,23.90
2022-08-19T12:59:37.543Z,24.00
2022-08-19T13:00:59.688Z,24.20
2022-08-19T13:02:23.308Z,24.20
2022-08-19T13:03:48.335Z,24.30
2022-08-19T13:05:25.697Z,24.40
2022-08-19T13:06:47.741Z,24.40
2022-08-19T13:09:12.276Z,24.40
2022-08-19T13:10:36.957Z,24.40
2022-08-19T13:11:59.058Z,24.50
2022-08-19T13:13:21.113Z,24.50
2022-08-19T13:14:43.943Z,24.60
2022-08-19T13:16:06.285Z,24.60
2022-08-19T13:17:28.405Z,24.60
2022-08-19T13:18:53.604Z,24.70
2022-08-19T13:20:18.533Z,24.70
2022-08-19T13:21:40.777Z,24.70
2022-08-19T13:23:05.575Z,24.60
2022-08-19T13:24:31.383Z,24.40
2022-08-19T13:26:00.965Z,24.40
2022-08-19T13:27:23.140Z,24.40
2022-08-19T13:29:04.684Z,24.40
2022-08-19T13:30:45.935Z,24.30
2022-08-19T13:32:26.696Z,24.30
2022-08-19T13:33:48.762Z,24.30
2022-08-19T13:35:16.121Z,24.20
2022-08-19T13:36:39.726Z,24.20
2022-08-19T13:38:06.422Z,24.20
2022-08-19T13:39:34.863Z,24.10
2022-08-19T13:40:57.053Z,24.10
2022-08-19T13:42:20.205Z,24.10
2022-08-19T13:43:42.360Z,24.10
2022-08-19T13:45:07.354Z,24.00
2022-08-19T13:46:30.136Z,24.10
2022-08-19T13:47:59.451Z,24.10
2022-08-19T13:49:24.061Z,24.10
2022-08-19T13:50:48.269Z,24.10
2022-08-19T13:52:10.352Z,24.20
2022-08-19T13:53:32.462Z,24.20
2022-08-19T13:54:54.876Z,24.20
2022-08-19T13:56:24.132Z,24.20
2022-08-19T13:57:55.151Z,24.20
2022-08-19T13:59:18.008Z,24.00
2022-08-19T14:00:44.316Z,24.00
2022-08-19T14:02:06.446Z,24.00
2022-08-19T14:03:29.346Z,24.00
2022-08-19T14:04:51.446Z,24.00
2022-08-19T14:06:13.574Z,24.00
2022-08-19T14:07:37.253Z,24.10
2022-08-19T14:09:00.524Z,24.20
2022-08-19T14:10:24.265Z,24.20
2022-08-19T14:11:47.536Z,24.30
2022-08-19T14:13:09.976Z,24.30
2022-08-19T14:14:32.488Z,24.30
2022-08-19T14:15:54.573Z,24.30
2022-08-19T14:17:17.099Z,24.10
2022-08-19T14:18:40.647Z,24.10
2022-08-19T14:20:10.554Z,24.00
2022-08-19T14:21:36.554Z,24.00
2022-08-19T14:23:02.998Z,23.90
2022-08-19T14:24:25.461Z,23.80
2022-08-19T14:25:47.891Z,23.70
2022-08-19T14:27:10.398Z,23.80
2022-08-19T14:28:32.581Z,23.80
2022-08-19T14:29:54.711Z,23.70
2022-08-19T14:31:19.999Z,23.70
2022-08-19T14:32:44.319Z,23.70
2022-08-19T14:34:06.387Z,23.60
2022-08-19T14:35:31.243Z,23.60
2022-08-19T14:36:54.031Z,23.70
2022-08-19T14:38:28.194Z,23.80
2022-08-19T14:39:54.099Z,23.90
2022-08-19T14:41:22.782Z,23.80
2022-08-19T14:42:45.155Z,23.80
2022-08-19T14:44:07.439Z,23.90
2022-08-19T14:45:31.745Z,23.80
2022-08-19T14:46:54.601Z,23.70
2022-08-19T14:48:19.443Z,23.70
2022-08-19T14:49:48.325Z,23.70
2022-08-19T14:51:11.569Z,23.70
2022-08-19T14:52:34.582Z,23.60
2022-08-19T14:53:58.403Z,23.60
2022-08-19T14:55:21.521Z,23.70
2022-08-19T14:56:45.160Z,23.70
2022-08-19T14:58:08.856Z,23.70
2022-08-19T14:59:33.399Z,23.80
2022-08-19T15:00:57.939Z,23.80
2022-08-19T15:02:34.502Z,23.80
2022-08-19T15:03:58.544Z,23.80
2022-08-19T15:05:22.566Z,23.80
2022-08-19T15:06:46.115Z,23.60
2022-08-19T15:08:09.711Z,23.60
2022-08-19T15:09:36.685Z,23.50
2022-08-19T15:11:00.949Z,23.50
2022-08-19T15:12:25.640Z,23.40
2022-08-19T15:13:50.094Z,23.40
2022-08-19T15:15:15.743Z,23.40
2022-08-19T15:16:42.117Z,23.40
2022-08-19T15:18:05.682Z,23.50
2022-08-19T15:19:29.632Z,23.40
2022-08-19T15:20:53.309Z,23.50
2022-08-19T15:22:16.679Z,23.50
2022-08-19T15:23:39.205Z,23.50
2022-08-19T15:25:02.213Z,23.60
2022-08-19T15:26:27.318Z,23.60
2022-08-19T15:27:49.526Z,23.60
2022-08-19T15:29:15.472Z,23.60
2022-08-19T15:30:37.970Z,23.60
2022-08-19T15:32:00.100Z,23.60
2022-08-19T15:33:23.679Z,23.60
2022-08-19T15:34:49.569Z,23.60
2022-08-19T15:36:16.730Z,23.70
2022-08-19T15:37:41.280Z,23.70
2022-08-19T15:39:05.317Z,23.60
2022-08-19T15:40:28.257Z,23.70
2022-08-19T15:41:50.415Z,23.60
2022-08-19T15:43:12.449Z,23.60
2022-08-19T15:44:34.793Z,23.60
2022-08-19T15:45:56.812Z,23.60
2022-08-19T15:47:20.633Z,23.60
2022-08-19T15:48:42.651Z,23.60
2022-08-19T15:50:18.449Z,23.60
2022-08-19T15:51:43.139Z,23.70
2022-08-19T15:53:11.014Z,23.60
2022-08-19T15:54:33.546Z,23.40
2022-08-19T15:55:55.650Z,23.40
2022-08-19T15:57:26.819Z,23.40
2022-08-19T15:59:07.329Z,23.40
2022-08-19T16:00:50.023Z,23.40
2022-08-19T16:02:37.016Z,23.40
2022-08-19T16:04:19.458Z,23.50
2022-08-19T16:06:07.505Z,23.50
2022-08-19T16:07:29.915Z,23.40
2022-08-19T16:08:57.783Z,23.40
2022-08-19T16:10:26.218Z,23.30
2022-08-19T16:11:56.498Z,23.30
2022-08-19T16:13:19.326Z,23.20
2022-08-19T16:14:41.372Z,23.10
2022-08-19T16:16:03.666Z,23.10
2022-08-19T16:17:25.861Z,23.10
2022-08-19T16:18:48.232Z,23.10
2022-08-19T16:20:11.155Z,23.10
2022-08-19T16:21:35.592Z,23.10
2022-08-19T16:22:59.387Z,23.00
2022-08-19T16:24:24.306Z,23.00
2022-08-19T16:25:46.367Z,23.00
2022-08-19T16:27:08.566Z,23.00
2022-08-19T16:28:30.709Z,22.90
2022-08-19T16:29:53.000Z,23.00
2022-08-19T16:31:15.658Z,22.90
2022-08-19T16:32:42.283Z,23.00
2022-08-19T16:34:05.209Z,23.10
2022-08-19T16:35:27.325Z,23.10
2022-08-19T16:36:50.355Z,23.10
2022-08-19T16:38:12.589Z,23.00
2022-08-19T16:39:34.735Z,23.00
2022-08-19T16:40:57.147Z,23.00
2022-08-19T16:42:19.556Z,23.00
2022-08-19T16:43:42.302Z,23.00
2022-08-19T16:45:04.925Z,23.10
2022-08-19T16:46:27.654Z,23.10
2022-08-19T16:47:50.519Z,23.20
2022-08-19T16:49:13.515Z,23.20
2022-08-19T16:50:48.833Z,23.20
2022-08-19T16:52:11.816Z,23.20
2022-08-19T16:53:35.613Z,23.20
2022-08-19T16:54:58.115Z,23.30
2022-08-19T16:56:21.396Z,23.30
2022-08-19T16:57:43.814Z,23.30
2022-08-19T16:59:06.576Z,23.30
2022-08-19T17:00:28.679Z,23.30
2022-08-19T17:01:52.273Z,23.30
2022-08-19T17:03:15.269Z,23.20
2022-08-19T17:04:37.635Z,23.20
2022-08-19T17:06:03.814Z,23.20
2022-08-19T17:07:33.334Z,23.20
2022-08-19T17:08:58.914Z,23.10
2022-08-19T17:10:21.012Z,23.00
2022-08-19T17:11:43.107Z,22.90
2022-08-19T17:13:06.516Z,22.90
2022-08-19T17:14:28.554Z,22.80
2022-08-19T17:15:50.634Z,22.80
2022-08-19T17:17:12.945Z,22.70
2022-08-19T17:18:35.206Z,22.70
2022-08-19T17:20:02.374Z,22.60
2022-08-19T17:21:28.288Z,22.50
2022-08-19T17:22:50.428Z,22.50
2022-08-19T17:24:12.544Z,22.50
2022-08-19T17:25:34.964Z,22.40
2022-08-19T17:26:57.072Z,22.40
2022-08-19T17:28:25.718Z,22.40
2022-08-19T17:29:48.102Z,22.30
2022-08-19T17:31:10.307Z,22.30
2022-08-19T17:32:34.765Z,22.30
2022-08-19T17:33:58.824Z,22.40
2022-08-19T17:35:24.116Z,22.50
2022-08-19T17:36:47.068Z,22.50
2022-08-19T17:38:11.922Z,22.60
2022-08-19T17:39:39.648Z,22.50
2022-08-19T17:41:05.300Z,22.50
2022-08-19T17:42:27.956Z,22.60
2022-08-19T17:43:50.285Z,22.60
2022-08-19T17:45:13.770Z,22.60
2022-08-19T17:46:36.178Z,22.60
2022-08-19T17:47:58.202Z,22.50
2022-08-19T17:49:20.323Z,22.40
2022-08-19T17:50:42.683Z,22.20
2022-08-19T17:52:09.909Z,22.20
2022-08-19T17:53:32.382Z,22.20
2022-08-19T17:54:54.661Z,22.10
2022-08-19T17:56:17.102Z,22.10
2022-08-19T17:57:41.882Z,22.10
2022-08-19T17:59:07.856Z,22.10
2022-08-19T18:00:36.206Z,22.00
2022-08-19T18:01:58.841Z,22.00
2022-08-19T18:03:22.169Z,22.00
2022-08-19T18:04:48.586Z,21.90
2022-08-19T18:06:11.411Z,22.00
2022-08-19T18:07:34.369Z,22.00
2022-08-19T18:08:56.677Z,22.00
2022-08-19T18:10:20.375Z,22.00
2022-08-19T18:11:43.900Z,22.00
2022-08-19T18:13:17.171Z,22.00
2022-08-19T18:14:41.153Z,21.90
2022-08-19T18:16:06.944Z,21.90
2022-08-19T18:17:29.247Z,21.90
2022-08-19T18:18:54.374Z,21.90